Decoded Metar for KPRO (PERRY MUNI in IA, USA) (IATA:N/A) | Meteo·Mobile Aviation Weather
aviador You're here:

KPRO Decoded Metar

PERRY MUNI in IA, USA
Report Time2018-10-15 19:35:00
UTC Time2018-10-15 19:27:45
Flight Rules vfr VFR
Wind280° at 09 Gusting to 18 kt
W.Decomp.*RWY 32: 6.7 kt HW 6 kt LCW
RWY 22: 4.8 kt HW 7.6 kt RCW
W.Rank280° ranks 16
Current wind is above 280° avg. (8.8)
Visibility9999 m
Phenomena:N/A
Clouds:N/A
Expected CloudBase > 4,800 ft AGL from Temp-Dew spread
CeilingNone
Temp08°C (ISA -5)
Dew Point-4°C (43% RH)
AAT2.3°C
QNH1026 hPa
Density Alt39 ft
Elevation1,010 ft
Report Wrong Elevation
Raw Report
KPRO 151935Z AUTO 28009G18KT 10SM CLR 08/M04 A3030 RMK AO2
T00821039=

Extra information for KPRO:More info

Metar Taf Metar & Taf Last 4 Metars F.Rules Stats Wind Profile Meteogram Temp Stats Airport Information Weather charts Add Link Nearby VenuesMetar ALERT Operation Metar Decoded Social comments

AIRNAV info for KPRO